sensor_id;sensor_type;location;lat;lon;timestamp;P1;durP1;ratioP1;P2;durP2;ratioP2
56333;SDS011;42240;53.626;55.886;2023-03-23T00:01:03;0.30;;;0.30;;
56333;SDS011;42240;53.626;55.886;2023-03-23T00:02:36;0.30;;;0.30;;
56333;SDS011;42240;53.626;55.886;2023-03-23T00:04:09;0.30;;;0.30;;
56333;SDS011;42240;53.626;55.886;2023-03-23T00:05:43;0.30;;;0.30;;
56333;SDS011;42240;53.626;55.886;2023-03-23T00:07:21;0.40;;;0.40;;
56333;SDS011;42240;53.626;55.886;2023-03-23T00:08:58;0.40;;;0.40;;
56333;SDS011;42240;53.626;55.886;2023-03-23T00:10:36;0.35;;;0.35;;
56333;SDS011;42240;53.626;55.886;2023-03-23T00:12:08;0.40;;;0.40;;
56333;SDS011;42240;53.626;55.886;2023-03-23T00:13:43;0.30;;;0.30;;
56333;SDS011;42240;53.626;55.886;2023-03-23T00:15:16;0.30;;;0.30;;
56333;SDS011;42240;53.626;55.886;2023-03-23T00:16:48;0.30;;;0.30;;
56333;SDS011;42240;53.626;55.886;2023-03-23T00:18:21;0.30;;;0.30;;
56333;SDS011;42240;53.626;55.886;2023-03-23T00:19:54;0.30;;;0.30;;
56333;SDS011;42240;53.626;55.886;2023-03-23T00:21:27;0.30;;;0.30;;
56333;SDS011;42240;53.626;55.886;2023-03-23T00:23:06;0.30;;;0.30;;
56333;SDS011;42240;53.626;55.886;2023-03-23T00:24:38;0.30;;;0.30;;
56333;SDS011;42240;53.626;55.886;2023-03-23T00:26:11;0.30;;;0.30;;
56333;SDS011;42240;53.626;55.886;2023-03-23T00:27:44;0.40;;;0.40;;
56333;SDS011;42240;53.626;55.886;2023-03-23T00:29:17;0.30;;;0.30;;
56333;SDS011;42240;53.626;55.886;2023-03-23T00:31:04;0.32;;;0.32;;
56333;SDS011;42240;53.626;55.886;2023-03-23T00:32:39;0.30;;;0.30;;
56333;SDS011;42240;53.626;55.886;2023-03-23T00:34:11;0.40;;;0.40;;
56333;SDS011;42240;53.626;55.886;2023-03-23T00:35:44;0.28;;;0.28;;
56333;SDS011;42240;53.626;55.886;2023-03-23T00:37:16;0.40;;;0.40;;
56333;SDS011;42240;53.626;55.886;2023-03-23T00:38:48;0.40;;;0.40;;
56333;SDS011;42240;53.626;55.886;2023-03-23T00:40:20;0.30;;;0.30;;
56333;SDS011;42240;53.626;55.886;2023-03-23T00:41:52;0.30;;;0.30;;
56333;SDS011;42240;53.626;55.886;2023-03-23T00:43:32;0.30;;;0.30;;
56333;SDS011;42240;53.626;55.886;2023-03-23T00:45:07;0.30;;;0.30;;
56333;SDS011;42240;53.626;55.886;2023-03-23T00:46:45;0.30;;;0.30;;
56333;SDS011;42240;53.626;55.886;2023-03-23T00:48:20;0.30;;;0.30;;
56333;SDS011;42240;53.626;55.886;2023-03-23T00:49:52;0.30;;;0.30;;
56333;SDS011;42240;53.626;55.886;2023-03-23T00:51:27;0.30;;;0.30;;
56333;SDS011;42240;53.626;55.886;2023-03-23T00:52:59;0.22;;;0.22;;
56333;SDS011;42240;53.626;55.886;2023-03-23T00:54:31;0.40;;;0.40;;
56333;SDS011;42240;53.626;55.886;2023-03-23T00:56:03;0.40;;;0.40;;
56333;SDS011;42240;53.626;55.886;2023-03-23T00:57:35;0.30;;;0.30;;
56333;SDS011;42240;53.626;55.886;2023-03-23T00:59:07;0.30;;;0.30;;
56333;SDS011;42240;53.626;55.886;2023-03-23T01:00:39;0.30;;;0.30;;
56333;SDS011;42240;53.626;55.886;2023-03-23T01:02:11;0.40;;;0.40;;
56333;SDS011;42240;53.626;55.886;2023-03-23T01:03:43;0.40;;;0.40;;
56333;SDS011;42240;53.626;55.886;2023-03-23T01:05:15;0.38;;;0.38;;
56333;SDS011;42240;53.626;55.886;2023-03-23T01:06:48;0.30;;;0.30;;
56333;SDS011;42240;53.626;55.886;2023-03-23T01:08:22;0.30;;;0.30;;
56333;SDS011;42240;53.626;55.886;2023-03-23T01:09:55;0.40;;;0.40;;
56333;SDS011;42240;53.626;55.886;2023-03-23T01:11:28;0.40;;;0.40;;
56333;SDS011;42240;53.626;55.886;2023-03-23T01:13:00;0.30;;;0.30;;
56333;SDS011;42240;53.626;55.886;2023-03-23T01:14:32;0.40;;;0.40;;
56333;SDS011;42240;53.626;55.886;2023-03-23T01:16:04;0.30;;;0.30;;
56333;SDS011;42240;53.626;55.886;2023-03-23T01:17:35;0.40;;;0.40;;
56333;SDS011;42240;53.626;55.886;2023-03-23T01:19:07;0.40;;;0.40;;
56333;SDS011;42240;53.626;55.886;2023-03-23T01:20:39;0.30;;;0.30;;
56333;SDS011;42240;53.626;55.886;2023-03-23T01:22:10;0.30;;;0.30;;
56333;SDS011;42240;53.626;55.886;2023-03-23T01:23:43;0.30;;;0.30;;
56333;SDS011;42240;53.626;55.886;2023-03-23T01:25:15;0.30;;;0.30;;
56333;SDS011;42240;53.626;55.886;2023-03-23T01:26:47;0.40;;;0.40;;
56333;SDS011;42240;53.626;55.886;2023-03-23T01:28:19;0.40;;;0.40;;
56333;SDS011;42240;53.626;55.886;2023-03-23T01:29:51;0.30;;;0.30;;
56333;SDS011;42240;53.626;55.886;2023-03-23T01:31:23;0.30;;;0.30;;
56333;SDS011;42240;53.626;55.886;2023-03-23T01:32:57;0.38;;;0.38;;
56333;SDS011;42240;53.626;55.886;2023-03-23T01:34:29;0.30;;;0.30;;
56333;SDS011;42240;53.626;55.886;2023-03-23T01:36:08;0.40;;;0.40;;
56333;SDS011;42240;53.626;55.886;2023-03-23T01:37:48;0.40;;;0.40;;
56333;SDS011;42240;53.626;55.886;2023-03-23T01:39:20;0.30;;;0.30;;
56333;SDS011;42240;53.626;55.886;2023-03-23T01:40:52;0.30;;;0.30;;
56333;SDS011;42240;53.626;55.886;2023-03-23T01:42:24;0.40;;;0.40;;
56333;SDS011;42240;53.626;55.886;2023-03-23T01:44:05;0.40;;;0.40;;
56333;SDS011;42240;53.626;55.886;2023-03-23T01:46:00;0.30;;;0.30;;
56333;SDS011;42240;53.626;55.886;2023-03-23T01:47:32;0.40;;;0.40;;
56333;SDS011;42240;53.626;55.886;2023-03-23T01:49:08;0.40;;;0.40;;
56333;SDS011;42240;53.626;55.886;2023-03-23T01:50:54;0.40;;;0.40;;
56333;SDS011;42240;53.626;55.886;2023-03-23T01:52:30;0.30;;;0.30;;
56333;SDS011;42240;53.626;55.886;2023-03-23T01:54:09;0.40;;;0.40;;
56333;SDS011;42240;53.626;55.886;2023-03-23T01:55:52;0.40;;;0.40;;
56333;SDS011;42240;53.626;55.886;2023-03-23T01:57:26;0.32;;;0.32;;
56333;SDS011;42240;53.626;55.886;2023-03-23T01:59:02;0.40;;;0.40;;
56333;SDS011;42240;53.626;55.886;2023-03-23T02:00:35;0.40;;;0.40;;
56333;SDS011;42240;53.626;55.886;2023-03-23T02:02:08;0.30;;;0.30;;
56333;SDS011;42240;53.626;55.886;2023-03-23T02:03:42;0.40;;;0.40;;
56333;SDS011;42240;53.626;55.886;2023-03-23T02:05:27;0.38;;;0.38;;
56333;SDS011;42240;53.626;55.886;2023-03-23T02:07:15;0.40;;;0.40;;
56333;SDS011;42240;53.626;55.886;2023-03-23T02:08:49;0.40;;;0.40;;
56333;SDS011;42240;53.626;55.886;2023-03-23T02:10:23;0.40;;;0.40;;
56333;SDS011;42240;53.626;55.886;2023-03-23T02:11:55;0.30;;;0.30;;
56333;SDS011;42240;53.626;55.886;2023-03-23T02:13:28;0.40;;;0.40;;
56333;SDS011;42240;53.626;55.886;2023-03-23T02:14:59;0.40;;;0.40;;
56333;SDS011;42240;53.626;55.886;2023-03-23T02:16:36;0.40;;;0.40;;
56333;SDS011;42240;53.626;55.886;2023-03-23T02:18:21;0.30;;;0.30;;
56333;SDS011;42240;53.626;55.886;2023-03-23T02:23:59;0.40;;;0.40;;
56333;SDS011;42240;53.626;55.886;2023-03-23T02:25:45;0.40;;;0.40;;
56333;SDS011;42240;53.626;55.886;2023-03-23T02:31:27;0.40;;;0.40;;
56333;SDS011;42240;53.626;55.886;2023-03-23T02:34:51;0.40;;;0.40;;
56333;SDS011;42240;53.626;55.886;2023-03-23T02:36:52;0.40;;;0.40;;
56333;SDS011;42240;53.626;55.886;2023-03-23T02:41:54;0.40;;;0.40;;
56333;SDS011;42240;53.626;55.886;2023-03-23T02:43:33;0.40;;;0.40;;
56333;SDS011;42240;53.626;55.886;2023-03-23T02:45:10;0.35;;;0.35;;
56333;SDS011;42240;53.626;55.886;2023-03-23T02:46:44;0.30;;;0.30;;
56333;SDS011;42240;53.626;55.886;2023-03-23T02:48:17;0.40;;;0.40;;
56333;SDS011;42240;53.626;55.886;2023-03-23T02:49:53;0.30;;;0.30;;
56333;SDS011;42240;53.626;55.886;2023-03-23T02:51:26;0.30;;;0.30;;
56333;SDS011;42240;53.626;55.886;2023-03-23T02:53:00;0.30;;;0.30;;
56333;SDS011;42240;53.626;55.886;2023-03-23T02:54:35;0.40;;;0.40;;
56333;SDS011;42240;53.626;55.886;2023-03-23T02:57:40;0.40;;;0.40;;
56333;SDS011;42240;53.626;55.886;2023-03-23T02:59:15;0.40;;;0.40;;
56333;SDS011;42240;53.626;55.886;2023-03-23T03:03:04;0.38;;;0.38;;
56333;SDS011;42240;53.626;55.886;2023-03-23T03:04:41;0.30;;;0.30;;
56333;SDS011;42240;53.626;55.886;2023-03-23T03:08:13;0.30;;;0.30;;
56333;SDS011;42240;53.626;55.886;2023-03-23T03:10:01;0.30;;;0.30;;
56333;SDS011;42240;53.626;55.886;2023-03-23T03:11:39;0.30;;;0.30;;
56333;SDS011;42240;53.626;55.886;2023-03-23T03:13:25;0.30;;;0.30;;
56333;SDS011;42240;53.626;55.886;2023-03-23T03:15:21;0.30;;;0.30;;
56333;SDS011;42240;53.626;55.886;2023-03-23T03:17:06;0.30;;;0.30;;
56333;SDS011;42240;53.626;55.886;2023-03-23T03:19:00;0.30;;;0.30;;
56333;SDS011;42240;53.626;55.886;2023-03-23T03:22:13;0.30;;;0.30;;
56333;SDS011;42240;53.626;55.886;2023-03-23T03:23:46;0.30;;;0.30;;
56333;SDS011;42240;53.626;55.886;2023-03-23T03:25:20;0.30;;;0.30;;
56333;SDS011;42240;53.626;55.886;2023-03-23T03:26:56;0.20;;;0.20;;
56333;SDS011;42240;53.626;55.886;2023-03-23T03:28:41;0.28;;;0.28;;
56333;SDS011;42240;53.626;55.886;2023-03-23T03:30:16;0.30;;;0.30;;
56333;SDS011;42240;53.626;55.886;2023-03-23T03:31:52;0.30;;;0.30;;
56333;SDS011;42240;53.626;55.886;2023-03-23T03:33:28;0.30;;;0.30;;
56333;SDS011;42240;53.626;55.886;2023-03-23T03:35:03;0.30;;;0.30;;
56333;SDS011;42240;53.626;55.886;2023-03-23T03:36:36;0.30;;;0.30;;
56333;SDS011;42240;53.626;55.886;2023-03-23T03:38:17;0.30;;;0.30;;
56333;SDS011;42240;53.626;55.886;2023-03-23T03:39:49;0.20;;;0.20;;
56333;SDS011;42240;53.626;55.886;2023-03-23T03:41:22;0.20;;;0.20;;
56333;SDS011;42240;53.626;55.886;2023-03-23T03:42:54;0.20;;;0.20;;
56333;SDS011;42240;53.626;55.886;2023-03-23T03:44:26;0.20;;;0.20;;
56333;SDS011;42240;53.626;55.886;2023-03-23T03:45:58;0.20;;;0.20;;
56333;SDS011;42240;53.626;55.886;2023-03-23T03:47:30;0.20;;;0.20;;
56333;SDS011;42240;53.626;55.886;2023-03-23T03:49:02;0.20;;;0.20;;
56333;SDS011;42240;53.626;55.886;2023-03-23T03:50:38;0.20;;;0.20;;
56333;SDS011;42240;53.626;55.886;2023-03-23T03:52:11;0.20;;;0.20;;
56333;SDS011;42240;53.626;55.886;2023-03-23T03:53:46;0.20;;;0.20;;
56333;SDS011;42240;53.626;55.886;2023-03-23T03:55:18;0.20;;;0.20;;
56333;SDS011;42240;53.626;55.886;2023-03-23T03:56:52;0.10;;;0.10;;
56333;SDS011;42240;53.626;55.886;2023-03-23T03:58:47;0.20;;;0.20;;
56333;SDS011;42240;53.626;55.886;2023-03-23T04:00:28;0.20;;;0.20;;
56333;SDS011;42240;53.626;55.886;2023-03-23T04:02:00;0.13;;;0.13;;
56333;SDS011;42240;53.626;55.886;2023-03-23T04:03:33;0.20;;;0.20;;
56333;SDS011;42240;53.626;55.886;2023-03-23T04:05:17;0.10;;;0.10;;
56333;SDS011;42240;53.626;55.886;2023-03-23T04:06:52;0.17;;;0.17;;
56333;SDS011;42240;53.626;55.886;2023-03-23T04:08:25;0.10;;;0.10;;
56333;SDS011;42240;53.626;55.886;2023-03-23T04:09:58;0.10;;;0.10;;
56333;SDS011;42240;53.626;55.886;2023-03-23T04:11:30;0.10;;;0.10;;
56333;SDS011;42240;53.626;55.886;2023-03-23T04:13:20;0.10;;;0.10;;
56333;SDS011;42240;53.626;55.886;2023-03-23T04:14:55;0.10;;;0.10;;
56333;SDS011;42240;53.626;55.886;2023-03-23T04:16:32;0.10;;;0.10;;
56333;SDS011;42240;53.626;55.886;2023-03-23T04:18:06;0.10;;;0.10;;
56333;SDS011;42240;53.626;55.886;2023-03-23T04:19:38;0.10;;;0.10;;
56333;SDS011;42240;53.626;55.886;2023-03-23T04:21:11;0.15;;;0.15;;
56333;SDS011;42240;53.626;55.886;2023-03-23T04:22:44;0.10;;;0.10;;
56333;SDS011;42240;53.626;55.886;2023-03-23T04:24:20;0.10;;;0.10;;
56333;SDS011;42240;53.626;55.886;2023-03-23T04:25:55;0.10;;;0.10;;
56333;SDS011;42240;53.626;55.886;2023-03-23T04:27:39;0.10;;;0.10;;
56333;SDS011;42240;53.626;55.886;2023-03-23T04:29:15;0.10;;;0.10;;
56333;SDS011;42240;53.626;55.886;2023-03-23T04:31:05;0.00;;;0.00;;
56333;SDS011;42240;53.626;55.886;2023-03-23T04:32:37;0.00;;;0.00;;
56333;SDS011;42240;53.626;55.886;2023-03-23T04:34:14;0.10;;;0.10;;
56333;SDS011;42240;53.626;55.886;2023-03-23T04:35:51;0.00;;;0.00;;
56333;SDS011;42240;53.626;55.886;2023-03-23T04:37:36;0.10;;;0.10;;
56333;SDS011;42240;53.626;55.886;2023-03-23T04:39:09;0.10;;;0.10;;
56333;SDS011;42240;53.626;55.886;2023-03-23T04:40:43;0.00;;;0.00;;
56333;SDS011;42240;53.626;55.886;2023-03-23T04:42:28;0.05;;;0.05;;
56333;SDS011;42240;53.626;55.886;2023-03-23T04:44:26;0.00;;;0.00;;
56333;SDS011;42240;53.626;55.886;2023-03-23T04:46:06;0.10;;;0.10;;
56333;SDS011;42240;53.626;55.886;2023-03-23T04:47:40;0.08;;;0.08;;
56333;SDS011;42240;53.626;55.886;2023-03-23T04:49:23;0.10;;;0.10;;
56333;SDS011;42240;53.626;55.886;2023-03-23T04:51:03;0.00;;;0.00;;
56333;SDS011;42240;53.626;55.886;2023-03-23T04:52:36;0.00;;;0.00;;
56333;SDS011;42240;53.626;55.886;2023-03-23T04:57:17;0.00;;;0.00;;
56333;SDS011;42240;53.626;55.886;2023-03-23T04:59:06;0.00;;;0.00;;
56333;SDS011;42240;53.626;55.886;2023-03-23T05:00:43;0.00;;;0.00;;
56333;SDS011;42240;53.626;55.886;2023-03-23T05:02:22;0.00;;;0.00;;
56333;SDS011;42240;53.626;55.886;2023-03-23T05:03:54;0.00;;;0.00;;
56333;SDS011;42240;53.626;55.886;2023-03-23T05:05:26;0.00;;;0.00;;
56333;SDS011;42240;53.626;55.886;2023-03-23T05:07:01;0.00;;;0.00;;
56333;SDS011;42240;53.626;55.886;2023-03-23T05:08:36;0.00;;;0.00;;
56333;SDS011;42240;53.626;55.886;2023-03-23T05:10:11;0.00;;;0.00;;
56333;SDS011;42240;53.626;55.886;2023-03-23T05:11:43;0.00;;;0.00;;
56333;SDS011;42240;53.626;55.886;2023-03-23T05:13:15;0.00;;;0.00;;
56333;SDS011;42240;53.626;55.886;2023-03-23T05:14:51;0.00;;;0.00;;
56333;SDS011;42240;53.626;55.886;2023-03-23T05:16:25;0.00;;;0.00;;
56333;SDS011;42240;53.626;55.886;2023-03-23T05:18:00;0.00;;;0.00;;
56333;SDS011;42240;53.626;55.886;2023-03-23T05:19:32;0.00;;;0.00;;
56333;SDS011;42240;53.626;55.886;2023-03-23T05:21:10;0.00;;;0.00;;
56333;SDS011;42240;53.626;55.886;2023-03-23T05:22:46;0.00;;;0.00;;
56333;SDS011;42240;53.626;55.886;2023-03-23T05:24:27;0.00;;;0.00;;
56333;SDS011;42240;53.626;55.886;2023-03-23T05:26:06;0.00;;;0.00;;
56333;SDS011;42240;53.626;55.886;2023-03-23T05:27:38;0.00;;;0.00;;
56333;SDS011;42240;53.626;55.886;2023-03-23T05:29:30;0.00;;;0.00;;
56333;SDS011;42240;53.626;55.886;2023-03-23T05:31:05;0.00;;;0.00;;
56333;SDS011;42240;53.626;55.886;2023-03-23T05:32:38;0.00;;;0.00;;
56333;SDS011;42240;53.626;55.886;2023-03-23T05:34:26;0.00;;;0.00;;
56333;SDS011;42240;53.626;55.886;2023-03-23T05:36:03;0.00;;;0.00;;
56333;SDS011;42240;53.626;55.886;2023-03-23T05:37:51;0.00;;;0.00;;
56333;SDS011;42240;53.626;55.886;2023-03-23T05:39:26;0.00;;;0.00;;
56333;SDS011;42240;53.626;55.886;2023-03-23T05:41:11;0.00;;;0.00;;
56333;SDS011;42240;53.626;55.886;2023-03-23T05:42:47;0.00;;;0.00;;
56333;SDS011;42240;53.626;55.886;2023-03-23T05:44:27;0.00;;;0.00;;
56333;SDS011;42240;53.626;55.886;2023-03-23T05:46:02;0.00;;;0.00;;
56333;SDS011;42240;53.626;55.886;2023-03-23T05:47:35;0.00;;;0.00;;
56333;SDS011;42240;53.626;55.886;2023-03-23T05:49:13;0.00;;;0.00;;
56333;SDS011;42240;53.626;55.886;2023-03-23T05:50:48;0.00;;;0.00;;
56333;SDS011;42240;53.626;55.886;2023-03-23T05:52:20;0.00;;;0.00;;
56333;SDS011;42240;53.626;55.886;2023-03-23T05:53:52;0.00;;;0.00;;
56333;SDS011;42240;53.626;55.886;2023-03-23T05:55:24;0.00;;;0.00;;
56333;SDS011;42240;53.626;55.886;2023-03-23T05:57:06;0.00;;;0.00;;
56333;SDS011;42240;53.626;55.886;2023-03-23T05:58:59;0.00;;;0.00;;
56333;SDS011;42240;53.626;55.886;2023-03-23T06:00:34;0.00;;;0.00;;
56333;SDS011;42240;53.626;55.886;2023-03-23T06:03:49;0.00;;;0.00;;
56333;SDS011;42240;53.626;55.886;2023-03-23T06:05:30;0.00;;;0.00;;
56333;SDS011;42240;53.626;55.886;2023-03-23T06:07:04;0.00;;;0.00;;
56333;SDS011;42240;53.626;55.886;2023-03-23T06:08:36;0.00;;;0.00;;
56333;SDS011;42240;53.626;55.886;2023-03-23T06:10:09;0.00;;;0.00;;
56333;SDS011;42240;53.626;55.886;2023-03-23T06:11:43;0.00;;;0.00;;
56333;SDS011;42240;53.626;55.886;2023-03-23T06:13:36;0.00;;;0.00;;
56333;SDS011;42240;53.626;55.886;2023-03-23T06:15:12;0.10;;;0.10;;
56333;SDS011;42240;53.626;55.886;2023-03-23T06:17:08;0.00;;;0.00;;
56333;SDS011;42240;53.626;55.886;2023-03-23T06:18:39;0.00;;;0.00;;
56333;SDS011;42240;53.626;55.886;2023-03-23T06:20:22;0.00;;;0.00;;
56333;SDS011;42240;53.626;55.886;2023-03-23T06:21:57;0.00;;;0.00;;
56333;SDS011;42240;53.626;55.886;2023-03-23T06:23:54;0.00;;;0.00;;
56333;SDS011;42240;53.626;55.886;2023-03-23T06:25:31;0.00;;;0.00;;
56333;SDS011;42240;53.626;55.886;2023-03-23T06:27:04;0.00;;;0.00;;
56333;SDS011;42240;53.626;55.886;2023-03-23T06:28:36;0.00;;;0.00;;
56333;SDS011;42240;53.626;55.886;2023-03-23T06:30:08;0.00;;;0.00;;
56333;SDS011;42240;53.626;55.886;2023-03-23T06:31:42;0.00;;;0.00;;
56333;SDS011;42240;53.626;55.886;2023-03-23T06:33:17;0.00;;;0.00;;
56333;SDS011;42240;53.626;55.886;2023-03-23T06:35:27;0.10;;;0.10;;
56333;SDS011;42240;53.626;55.886;2023-03-23T06:37:25;0.00;;;0.00;;
56333;SDS011;42240;53.626;55.886;2023-03-23T06:39:09;0.00;;;0.00;;
56333;SDS011;42240;53.626;55.886;2023-03-23T06:41:01;0.00;;;0.00;;
56333;SDS011;42240;53.626;55.886;2023-03-23T06:42:34;0.00;;;0.00;;
56333;SDS011;42240;53.626;55.886;2023-03-23T06:44:32;0.10;;;0.10;;
56333;SDS011;42240;53.626;55.886;2023-03-23T06:46:05;0.00;;;0.00;;
56333;SDS011;42240;53.626;55.886;2023-03-23T06:47:46;0.00;;;0.00;;
56333;SDS011;42240;53.626;55.886;2023-03-23T06:49:20;0.00;;;0.00;;
56333;SDS011;42240;53.626;55.886;2023-03-23T06:50:59;0.00;;;0.00;;
56333;SDS011;42240;53.626;55.886;2023-03-23T06:52:32;0.03;;;0.03;;
56333;SDS011;42240;53.626;55.886;2023-03-23T06:54:04;0.10;;;0.10;;
56333;SDS011;42240;53.626;55.886;2023-03-23T06:55:42;0.10;;;0.10;;
56333;SDS011;42240;53.626;55.886;2023-03-23T06:57:15;0.08;;;0.08;;
56333;SDS011;42240;53.626;55.886;2023-03-23T06:58:50;0.10;;;0.10;;
56333;SDS011;42240;53.626;55.886;2023-03-23T07:00:22;0.10;;;0.10;;
56333;SDS011;42240;53.626;55.886;2023-03-23T07:01:54;0.10;;;0.10;;
56333;SDS011;42240;53.626;55.886;2023-03-23T07:03:26;0.10;;;0.10;;
56333;SDS011;42240;53.626;55.886;2023-03-23T07:04:59;0.10;;;0.10;;
56333;SDS011;42240;53.626;55.886;2023-03-23T07:06:32;0.10;;;0.10;;
56333;SDS011;42240;53.626;55.886;2023-03-23T07:08:05;0.10;;;0.10;;
56333;SDS011;42240;53.626;55.886;2023-03-23T07:09:45;0.10;;;0.10;;
56333;SDS011;42240;53.626;55.886;2023-03-23T07:11:20;0.10;;;0.10;;
56333;SDS011;42240;53.626;55.886;2023-03-23T07:12:52;0.10;;;0.10;;
56333;SDS011;42240;53.626;55.886;2023-03-23T07:14:24;0.10;;;0.10;;
56333;SDS011;42240;53.626;55.886;2023-03-23T07:15:56;0.10;;;0.10;;
56333;SDS011;42240;53.626;55.886;2023-03-23T07:17:28;0.10;;;0.10;;
56333;SDS011;42240;53.626;55.886;2023-03-23T07:19:23;0.10;;;0.10;;
56333;SDS011;42240;53.626;55.886;2023-03-23T07:20:55;0.10;;;0.10;;
56333;SDS011;42240;53.626;55.886;2023-03-23T07:22:33;0.10;;;0.10;;
56333;SDS011;42240;53.626;55.886;2023-03-23T07:24:13;0.10;;;0.10;;
56333;SDS011;42240;53.626;55.886;2023-03-23T07:26:00;0.08;;;0.08;;
56333;SDS011;42240;53.626;55.886;2023-03-23T07:27:39;0.10;;;0.10;;
56333;SDS011;42240;53.626;55.886;2023-03-23T07:29:12;0.10;;;0.10;;
56333;SDS011;42240;53.626;55.886;2023-03-23T07:30:50;0.10;;;0.10;;
56333;SDS011;42240;53.626;55.886;2023-03-23T07:33:54;0.10;;;0.10;;
56333;SDS011;42240;53.626;55.886;2023-03-23T07:35:31;0.10;;;0.10;;
56333;SDS011;42240;53.626;55.886;2023-03-23T07:37:07;0.13;;;0.13;;
56333;SDS011;42240;53.626;55.886;2023-03-23T07:38:41;0.10;;;0.10;;
56333;SDS011;42240;53.626;55.886;2023-03-23T07:40:13;0.10;;;0.10;;
56333;SDS011;42240;53.626;55.886;2023-03-23T07:41:53;0.10;;;0.10;;
56333;SDS011;42240;53.626;55.886;2023-03-23T07:43:37;0.10;;;0.10;;
56333;SDS011;42240;53.626;55.886;2023-03-23T07:45:10;0.10;;;0.10;;
56333;SDS011;42240;53.626;55.886;2023-03-23T07:46:43;0.10;;;0.10;;
56333;SDS011;42240;53.626;55.886;2023-03-23T07:48:18;0.20;;;0.20;;
56333;SDS011;42240;53.626;55.886;2023-03-23T07:49:50;0.10;;;0.10;;
56333;SDS011;42240;53.626;55.886;2023-03-23T07:51:42;0.10;;;0.10;;
56333;SDS011;42240;53.626;55.886;2023-03-23T07:53:16;0.10;;;0.10;;
56333;SDS011;42240;53.626;55.886;2023-03-23T07:54:57;0.10;;;0.10;;
56333;SDS011;42240;53.626;55.886;2023-03-23T07:56:59;0.10;;;0.10;;
56333;SDS011;42240;53.626;55.886;2023-03-23T07:58:41;0.10;;;0.10;;
56333;SDS011;42240;53.626;55.886;2023-03-23T08:00:16;0.20;;;0.20;;
56333;SDS011;42240;53.626;55.886;2023-03-23T08:01:55;0.10;;;0.10;;
56333;SDS011;42240;53.626;55.886;2023-03-23T08:03:37;0.10;;;0.10;;
56333;SDS011;42240;53.626;55.886;2023-03-23T08:05:35;0.10;;;0.10;;
56333;SDS011;42240;53.626;55.886;2023-03-23T08:07:27;0.10;;;0.10;;
56333;SDS011;42240;53.626;55.886;2023-03-23T08:09:25;0.10;;;0.10;;
56333;SDS011;42240;53.626;55.886;2023-03-23T08:11:27;0.10;;;0.10;;
56333;SDS011;42240;53.626;55.886;2023-03-23T08:13:33;0.20;;;0.20;;
56333;SDS011;42240;53.626;55.886;2023-03-23T08:15:26;0.13;;;0.13;;
56333;SDS011;42240;53.626;55.886;2023-03-23T08:17:22;0.10;;;0.10;;
56333;SDS011;42240;53.626;55.886;2023-03-23T08:19:23;0.10;;;0.10;;
56333;SDS011;42240;53.626;55.886;2023-03-23T08:21:03;0.20;;;0.20;;
56333;SDS011;42240;53.626;55.886;2023-03-23T08:22:55;0.10;;;0.10;;
56333;SDS011;42240;53.626;55.886;2023-03-23T08:24:54;0.10;;;0.10;;
56333;SDS011;42240;53.626;55.886;2023-03-23T08:26:34;0.13;;;0.13;;
56333;SDS011;42240;53.626;55.886;2023-03-23T08:28:26;0.15;;;0.15;;
56333;SDS011;42240;53.626;55.886;2023-03-23T08:30:30;0.10;;;0.10;;
56333;SDS011;42240;53.626;55.886;2023-03-23T08:32:26;0.10;;;0.10;;
56333;SDS011;42240;53.626;55.886;2023-03-23T08:34:28;0.10;;;0.10;;
56333;SDS011;42240;53.626;55.886;2023-03-23T08:36:10;0.13;;;0.13;;
56333;SDS011;42240;53.626;55.886;2023-03-23T08:38:02;0.10;;;0.10;;
56333;SDS011;42240;53.626;55.886;2023-03-23T08:40:06;0.20;;;0.20;;
56333;SDS011;42240;53.626;55.886;2023-03-23T08:42:07;0.13;;;0.13;;
56333;SDS011;42240;53.626;55.886;2023-03-23T08:44:02;0.10;;;0.10;;
56333;SDS011;42240;53.626;55.886;2023-03-23T08:45:54;0.20;;;0.20;;
56333;SDS011;42240;53.626;55.886;2023-03-23T08:47:45;0.20;;;0.20;;
56333;SDS011;42240;53.626;55.886;2023-03-23T08:49:42;0.15;;;0.15;;
56333;SDS011;42240;53.626;55.886;2023-03-23T08:51:39;0.20;;;0.20;;
56333;SDS011;42240;53.626;55.886;2023-03-23T08:53:12;0.20;;;0.20;;
56333;SDS011;42240;53.626;55.886;2023-03-23T08:54:52;0.20;;;0.20;;
56333;SDS011;42240;53.626;55.886;2023-03-23T08:56:53;0.20;;;0.20;;
56333;SDS011;42240;53.626;55.886;2023-03-23T08:58:44;0.20;;;0.20;;
56333;SDS011;42240;53.626;55.886;2023-03-23T09:00:34;0.20;;;0.20;;
56333;SDS011;42240;53.626;55.886;2023-03-23T09:02:15;0.20;;;0.20;;
56333;SDS011;42240;53.626;55.886;2023-03-23T09:03:55;0.13;;;0.13;;
56333;SDS011;42240;53.626;55.886;2023-03-23T09:05:27;0.20;;;0.20;;
56333;SDS011;42240;53.626;55.886;2023-03-23T09:07:20;0.17;;;0.17;;
56333;SDS011;42240;53.626;55.886;2023-03-23T09:08:53;0.10;;;0.10;;
56333;SDS011;42240;53.626;55.886;2023-03-23T09:10:30;0.10;;;0.10;;
56333;SDS011;42240;53.626;55.886;2023-03-23T09:12:01;0.20;;;0.20;;
56333;SDS011;42240;53.626;55.886;2023-03-23T09:13:34;0.15;;;0.15;;
56333;SDS011;42240;53.626;55.886;2023-03-23T09:15:08;0.20;;;0.20;;
56333;SDS011;42240;53.626;55.886;2023-03-23T09:16:41;0.20;;;0.20;;
56333;SDS011;42240;53.626;55.886;2023-03-23T09:18:13;0.20;;;0.20;;
56333;SDS011;42240;53.626;55.886;2023-03-23T09:19:44;0.20;;;0.20;;
56333;SDS011;42240;53.626;55.886;2023-03-23T09:21:17;0.20;;;0.20;;
56333;SDS011;42240;53.626;55.886;2023-03-23T09:22:50;0.10;;;0.10;;
56333;SDS011;42240;53.626;55.886;2023-03-23T09:24:23;0.20;;;0.20;;
56333;SDS011;42240;53.626;55.886;2023-03-23T09:25:55;0.20;;;0.20;;
56333;SDS011;42240;53.626;55.886;2023-03-23T09:27:27;0.20;;;0.20;;
56333;SDS011;42240;53.626;55.886;2023-03-23T09:28:59;0.10;;;0.10;;
56333;SDS011;42240;53.626;55.886;2023-03-23T09:30:32;0.15;;;0.15;;
56333;SDS011;42240;53.626;55.886;2023-03-23T09:32:06;0.20;;;0.20;;
56333;SDS011;42240;53.626;55.886;2023-03-23T09:33:39;0.13;;;0.13;;
56333;SDS011;42240;53.626;55.886;2023-03-23T09:35:11;0.10;;;0.10;;
56333;SDS011;42240;53.626;55.886;2023-03-23T09:36:44;0.20;;;0.20;;
56333;SDS011;42240;53.626;55.886;2023-03-23T09:38:18;0.10;;;0.10;;
56333;SDS011;42240;53.626;55.886;2023-03-23T09:39:50;0.20;;;0.20;;
56333;SDS011;42240;53.626;55.886;2023-03-23T09:43:13;0.13;;;0.13;;
56333;SDS011;42240;53.626;55.886;2023-03-23T09:48:55;0.20;;;0.20;;
56333;SDS011;42240;53.626;55.886;2023-03-23T09:50:31;0.10;;;0.10;;
56333;SDS011;42240;53.626;55.886;2023-03-23T09:52:13;0.15;;;0.15;;
56333;SDS011;42240;53.626;55.886;2023-03-23T09:53:48;0.20;;;0.20;;
56333;SDS011;42240;53.626;55.886;2023-03-23T09:55:24;0.17;;;0.17;;
56333;SDS011;42240;53.626;55.886;2023-03-23T09:56:57;0.20;;;0.20;;
56333;SDS011;42240;53.626;55.886;2023-03-23T09:58:35;0.20;;;0.20;;
56333;SDS011;42240;53.626;55.886;2023-03-23T10:01:53;0.10;;;0.10;;
56333;SDS011;42240;53.626;55.886;2023-03-23T10:03:39;0.10;;;0.10;;
56333;SDS011;42240;53.626;55.886;2023-03-23T10:06:49;0.20;;;0.20;;
56333;SDS011;42240;53.626;55.886;2023-03-23T10:08:22;0.20;;;0.20;;
56333;SDS011;42240;53.626;55.886;2023-03-23T10:09:58;0.13;;;0.13;;
56333;SDS011;42240;53.626;55.886;2023-03-23T10:14:10;0.20;;;0.20;;
56333;SDS011;42240;53.626;55.886;2023-03-23T10:15:50;0.10;;;0.10;;
56333;SDS011;42240;53.626;55.886;2023-03-23T10:19:23;0.20;;;0.20;;
56333;SDS011;42240;53.626;55.886;2023-03-23T10:21:02;0.10;;;0.10;;
56333;SDS011;42240;53.626;55.886;2023-03-23T10:22:43;0.13;;;0.13;;